Time;durP1;ratioP1;P1;durP2;ratioP2;P2;SDS_P1;SDS_P2;PMS_P1;PMS_P2;Temp;Humidity;BMP_temperature;BMP_pressure;BME280_temperature;BME280_humidity;BME280_pressure;Samples;Min_cycle;Max_cycle;Signal;HPM_P1;HPM_P2
2021/09/07 00:00:40;;;;;;;17.02;10.43;;;16.20;91.00;;;;;;5030957;28;20021;-66
2021/09/07 00:03:05;;;;;;;15.93;9.80;;;16.10;91.10;;;;;;5049966;28;20496;-66
2021/09/07 00:05:31;;;;;;;13.77;9.07;;;16.20;91.10;;;;;;5049171;28;20025;-66
2021/09/07 00:07:56;;;;;;;12.38;9.48;;;16.10;90.90;;;;;;5049177;28;20059;-66
2021/09/07 00:10:22;;;;;;;12.63;10.00;;;16.00;90.80;;;;;;5048946;28;20048;-66
2021/09/07 00:12:48;;;;;;;11.95;8.88;;;16.00;90.80;;;;;;5049673;28;20456;-66
2021/09/07 00:15:16;;;;;;;13.65;9.40;;;15.90;90.80;;;;;;5049202;28;20024;-66
2021/09/07 00:17:42;;;;;;;13.20;9.43;;;15.80;90.90;;;;;;5049529;28;20021;-66
2021/09/07 00:20:09;;;;;;;12.05;9.48;;;15.80;90.90;;;;;;5049574;28;20366;-66
2021/09/07 00:22:35;;;;;;;12.43;8.75;;;15.70;90.90;;;;;;5049154;28;20068;-66
2021/09/07 00:27:29;;;;;;;14.20;9.40;;;15.60;90.90;;;;;;5015973;28;20417;-66
2021/09/07 00:29:54;;;;;;;12.10;9.63;;;15.50;91.00;;;;;;5013792;28;20021;-66
2021/09/07 00:32:20;;;;;;;12.43;9.23;;;15.50;91.00;;;;;;5009018;28;20433;-67
2021/09/07 00:34:45;;;;;;;15.93;8.95;;;15.50;91.00;;;;;;5009769;28;20025;-66
2021/09/07 00:37:11;;;;;;;11.43;9.30;;;15.40;91.00;;;;;;5009128;28;20029;-66
2021/09/07 00:39:37;;;;;;;11.93;9.40;;;15.40;91.00;;;;;;5009892;28;20026;-66
2021/09/07 00:42:03;;;;;;;14.25;9.35;;;15.40;91.10;;;;;;5024800;28;20025;-67
2021/09/07 00:44:28;;;;;;;14.30;9.57;;;15.30;91.10;;;;;;5022598;28;20038;-67
2021/09/07 00:46:59;;;;;;;11.02;9.05;;;15.30;91.10;;;;;;5009324;28;20030;-68
2021/09/07 00:49:26;;;;;;;12.05;9.30;;;15.30;91.20;;;;;;4993135;28;20030;-67
2021/09/07 00:51:53;;;;;;;11.05;8.30;;;15.30;91.30;;;;;;5013717;28;20474;-67
2021/09/07 00:54:20;;;;;;;14.75;9.23;;;15.30;91.30;;;;;;5012512;28;20470;-67
2021/09/07 00:56:46;;;;;;;13.85;9.20;;;15.30;91.30;;;;;;5013095;28;20034;-67
2021/09/07 00:59:13;;;;;;;12.45;9.52;;;15.20;91.30;;;;;;5013556;28;20053;-67
2021/09/07 01:01:38;;;;;;;12.32;9.45;;;15.20;91.40;;;;;;5012911;28;20080;-67
2021/09/07 01:04:04;;;;;;;11.88;9.23;;;15.20;91.50;;;;;;5013117;28;20056;-66
2021/09/07 01:06:30;;;;;;;12.63;8.88;;;15.20;91.60;;;;;;5012697;28;20034;-65
2021/09/07 01:08:57;;;;;;;10.95;8.88;;;15.20;91.60;;;;;;5013170;28;20382;-66
2021/09/07 01:11:23;;;;;;;13.73;9.18;;;15.30;91.70;;;;;;5013268;28;20037;-66
2021/09/07 01:13:48;;;;;;;11.07;8.25;;;15.30;91.60;;;;;;5013228;28;20030;-66
2021/09/07 01:16:15;;;;;;;10.65;8.77;;;15.30;91.70;;;;;;5012470;28;20076;-66
2021/09/07 01:18:40;;;;;;;11.85;9.35;;;15.30;91.70;;;;;;5012158;28;20030;-66
2021/09/07 01:21:11;;;;;;;12.75;9.23;;;15.30;91.70;;;;;;5012886;28;20028;-65
2021/09/07 01:23:40;;;;;;;13.00;8.68;;;15.20;91.80;;;;;;5012929;28;20033;-66
2021/09/07 01:26:06;;;;;;;12.15;8.43;;;15.30;91.80;;;;;;5012330;28;20029;-65
2021/09/07 01:28:33;;;;;;;12.60;9.30;;;15.20;91.70;;;;;;5012409;28;20022;-65
2021/09/07 01:30:58;;;;;;;11.52;9.10;;;15.20;91.60;;;;;;5012459;28;20028;-65
2021/09/07 01:33:24;;;;;;;10.63;8.38;;;15.10;91.50;;;;;;5012078;28;20026;-66
2021/09/07 01:35:50;;;;;;;15.35;8.50;;;15.10;91.50;;;;;;5012367;28;20121;-66
2021/09/07 01:38:15;;;;;;;10.98;8.85;;;15.00;91.40;;;;;;5012041;28;20033;-67
2021/09/07 01:40:41;;;;;;;13.23;8.32;;;14.90;91.40;;;;;;5012616;28;20485;-65
2021/09/07 01:43:13;;;;;;;11.10;8.85;;;14.80;91.50;;;;;;5012718;28;20437;-66
2021/09/07 01:45:39;;;;;;;;;;;14.80;91.60;;;;;;5012093;28;20130;-65
2021/09/07 01:48:04;;;;;;;13.35;8.40;;;14.80;91.60;;;;;;5012037;28;19999;-66
2021/09/07 01:50:30;;;;;;;11.23;9.27;;;14.80;91.70;;;;;;5012297;28;20030;-66
2021/09/07 01:52:55;;;;;;;11.73;9.23;;;14.80;91.80;;;;;;5011697;28;20025;-65
2021/09/07 01:55:21;;;;;;;14.68;8.00;;;14.80;91.80;;;;;;5019795;28;20446;-65
2021/09/07 01:57:47;;;;;;;12.05;8.05;;;14.80;91.80;;;;;;5024102;28;20105;-65
2021/09/07 02:00:13;;;;;;;10.93;8.27;;;14.80;91.80;;;;;;5011396;28;20045;-67
2021/09/07 02:02:39;;;;;;;11.50;8.90;;;14.80;91.70;;;;;;5011997;28;20030;-65
2021/09/07 02:05:05;;;;;;;15.32;8.15;;;14.70;91.70;;;;;;5010567;28;20025;-65
2021/09/07 02:07:31;;;;;;;12.70;9.05;;;14.70;91.70;;;;;;5011645;28;20137;-65
2021/09/07 02:09:56;;;;;;;11.93;9.35;;;14.70;91.80;;;;;;5012244;28;20034;-65
2021/09/07 02:12:22;;;;;;;12.07;8.73;;;14.70;91.80;;;;;;5012340;28;20473;-66
2021/09/07 02:14:47;;;;;;;13.07;8.85;;;14.60;91.80;;;;;;5011760;28;20113;-66
2021/09/07 02:17:13;;;;;;;11.63;8.98;;;14.60;91.90;;;;;;5011973;28;20029;-66
2021/09/07 02:19:39;;;;;;;11.65;8.57;;;14.60;92.00;;;;;;5011807;28;20436;-66
2021/09/07 02:22:05;;;;;;;14.50;9.90;;;14.60;91.90;;;;;;5011864;28;20022;-66
2021/09/07 02:24:30;;;;;;;14.35;9.95;;;14.60;91.90;;;;;;5011836;28;20100;-67
2021/09/07 02:26:56;;;;;;;12.98;9.38;;;14.60;92.00;;;;;;5011707;28;20159;-65
2021/09/07 02:29:21;;;;;;;16.40;9.40;;;14.60;92.10;;;;;;4992448;28;20034;-65
2021/09/07 02:31:47;;;;;;;13.30;9.60;;;14.50;92.10;;;;;;5004576;28;20037;-65
2021/09/07 02:34:13;;;;;;;15.63;9.88;;;14.50;92.20;;;;;;5011907;28;20068;-65
2021/09/07 02:36:38;;;;;;;12.82;9.98;;;14.50;92.20;;;;;;4993584;28;20041;-65
2021/09/07 02:39:04;;;;;;;12.88;10.13;;;14.50;92.30;;;;;;5011362;28;20072;-66
2021/09/07 02:41:30;;;;;;;13.40;9.95;;;14.50;92.30;;;;;;5011623;28;20030;-66
2021/09/07 02:43:55;;;;;;;13.27;9.68;;;14.50;92.30;;;;;;5011844;28;20022;-65
2021/09/07 02:46:21;;;;;;;13.60;9.52;;;14.50;92.30;;;;;;5010866;28;20108;-66
2021/09/07 02:48:47;;;;;;;14.20;9.30;;;14.50;92.20;;;;;;5010874;28;20030;-65
2021/09/07 02:51:12;;;;;;;12.50;8.77;;;14.40;92.10;;;;;;5011310;28;20026;-67
2021/09/07 02:53:38;;;;;;;12.27;9.35;;;14.40;92.10;;;;;;5004757;28;20033;-66
2021/09/07 02:56:04;;;;;;;10.90;8.68;;;14.30;92.20;;;;;;5010635;28;20034;-67
2021/09/07 02:58:29;;;;;;;11.48;8.77;;;14.20;92.40;;;;;;5011396;28;20079;-65
2021/09/07 03:00:55;;;;;;;12.55;8.52;;;14.20;92.10;;;;;;5010919;28;20033;-65
2021/09/07 03:03:22;;;;;;;14.38;9.02;;;14.10;92.10;;;;;;4993867;28;20029;-65
2021/09/07 03:05:48;;;;;;;12.55;8.88;;;14.10;92.10;;;;;;5010019;28;20064;-66
2021/09/07 03:08:13;;;;;;;13.75;9.18;;;14.00;92.20;;;;;;5011089;28;20113;-65
2021/09/07 03:10:39;;;;;;;11.05;9.07;;;14.00;92.10;;;;;;5011245;28;20402;-66
2021/09/07 03:13:04;;;;;;;11.77;8.30;;;14.00;92.20;;;;;;5010342;28;20034;-65
2021/09/07 03:15:30;;;;;;;10.88;8.38;;;13.90;92.10;;;;;;5010307;28;20434;-67
2021/09/07 03:17:55;;;;;;;13.90;9.02;;;13.90;92.20;;;;;;5010933;28;20032;-66
2021/09/07 03:20:21;;;;;;;12.77;8.23;;;13.80;92.20;;;;;;5010964;28;20053;-65
2021/09/07 03:22:46;;;;;;;11.82;8.68;;;13.80;92.20;;;;;;5010865;28;20133;-66
2021/09/07 03:25:12;;;;;;;12.68;8.00;;;13.80;92.20;;;;;;5010399;28;20370;-67
2021/09/07 03:27:38;;;;;;;12.45;8.77;;;13.80;92.20;;;;;;5010635;28;20026;-65
2021/09/07 03:30:04;;;;;;;10.63;8.45;;;13.70;92.20;;;;;;5010707;28;20121;-65
2021/09/07 03:32:29;;;;;;;17.63;8.82;;;13.70;92.20;;;;;;5010886;28;20033;-66
2021/09/07 03:34:55;;;;;;;11.95;8.30;;;13.70;92.20;;;;;;5010145;28;20141;-65
2021/09/07 03:37:20;;;;;;;14.77;9.50;;;13.70;92.30;;;;;;5010171;28;20033;-65
2021/09/07 03:39:46;;;;;;;13.55;10.05;;;13.70;92.30;;;;;;5010978;28;20394;-65
2021/09/07 03:42:12;;;;;;;12.43;9.57;;;13.80;92.40;;;;;;5010579;28;20386;-66
2021/09/07 03:44:37;;;;;;;13.52;10.00;;;13.80;92.40;;;;;;5010034;28;20095;-65
2021/09/07 03:47:04;;;;;;;15.75;11.10;;;13.80;92.40;;;;;;5010441;28;20135;-66
2021/09/07 03:49:29;;;;;;;17.20;11.77;;;13.80;92.30;;;;;;5010249;28;20030;-65
2021/09/07 03:51:55;;;;;;;16.08;11.05;;;13.80;92.30;;;;;;5006770;28;20025;-66
2021/09/07 03:54:21;;;;;;;14.90;11.20;;;13.80;92.30;;;;;;5010387;28;20032;-64
2021/09/07 03:56:46;;;;;;;15.02;10.50;;;13.80;92.30;;;;;;5009876;28;20100;-66
2021/09/07 03:59:12;;;;;;;14.38;10.63;;;13.70;92.30;;;;;;5010129;28;20415;-66
2021/09/07 04:01:37;;;;;;;14.13;10.40;;;13.70;92.30;;;;;;5010446;28;20164;-66
2021/09/07 04:04:04;;;;;;;15.32;10.82;;;13.60;92.30;;;;;;5010196;28;20108;-65
2021/09/07 04:06:30;;;;;;;15.95;10.52;;;13.60;92.40;;;;;;5009989;28;20475;-66
2021/09/07 04:08:55;;;;;;;15.60;10.23;;;13.60;92.50;;;;;;5010306;28;20116;-66
2021/09/07 04:11:21;;;;;;;15.40;10.23;;;13.60;92.50;;;;;;5010804;28;20359;-65
2021/09/07 04:13:46;;;;;;;17.20;10.27;;;13.60;92.50;;;;;;5010594;28;20469;-65
2021/09/07 04:16:12;;;;;;;13.65;10.05;;;13.50;92.50;;;;;;5009356;28;20184;-66
2021/09/07 04:18:38;;;;;;;15.05;9.85;;;13.50;92.40;;;;;;5010276;28;20030;-67
2021/09/07 04:21:05;;;;;;;13.60;10.30;;;13.50;92.50;;;;;;5010318;28;20474;-65
2021/09/07 04:23:30;;;;;;;15.73;10.25;;;13.50;92.50;;;;;;4993271;28;20026;-65
2021/09/07 04:25:57;;;;;;;15.30;10.15;;;13.40;92.50;;;;;;4995764;28;20022;-65
2021/09/07 04:28:23;;;;;;;14.00;9.60;;;13.40;92.50;;;;;;5014053;28;20102;-65
2021/09/07 04:30:48;;;;;;;19.85;10.10;;;13.40;92.50;;;;;;5013903;28;20408;-65
2021/09/07 04:33:14;;;;;;;15.65;10.35;;;13.30;92.60;;;;;;5013961;28;20116;-67
2021/09/07 04:35:40;;;;;;;16.67;10.93;;;13.30;92.60;;;;;;5013487;28;20036;-67
2021/09/07 04:38:05;;;;;;;17.98;12.27;;;13.30;92.60;;;;;;5014192;28;20113;-67
2021/09/07 04:40:31;;;;;;;15.75;12.30;;;13.30;92.70;;;;;;5014117;28;20416;-67
2021/09/07 04:42:56;;;;;;;16.55;12.63;;;13.30;92.80;;;;;;5014386;28;20018;-67
2021/09/07 04:45:22;;;;;;;16.85;12.15;;;13.30;92.80;;;;;;5013058;28;20068;-66
2021/09/07 04:47:48;;;;;;;17.45;12.05;;;13.40;92.80;;;;;;5014120;28;20121;-66
2021/09/07 04:50:13;;;;;;;19.52;11.98;;;13.40;92.80;;;;;;5014653;28;20030;-66
2021/09/07 04:52:39;;;;;;;18.85;12.30;;;13.40;92.80;;;;;;5013856;28;20022;-66
2021/09/07 04:55:05;;;;;;;16.48;12.32;;;13.40;92.90;;;;;;5013379;28;20030;-67
2021/09/07 04:57:31;;;;;;;16.73;12.18;;;13.50;93.00;;;;;;5013852;28;20092;-65
2021/09/07 04:59:57;;;;;;;17.63;11.93;;;13.50;93.00;;;;;;5014105;28;20069;-66
2021/09/07 05:02:22;;;;;;;18.27;11.93;;;13.50;93.00;;;;;;5013494;28;20026;-65
2021/09/07 05:04:48;;;;;;;15.27;11.15;;;13.50;93.00;;;;;;5013557;28;20033;-66
2021/09/07 05:07:14;;;;;;;17.85;11.82;;;13.50;93.00;;;;;;5014096;28;20526;-66
2021/09/07 05:09:39;;;;;;;16.42;11.35;;;13.50;93.00;;;;;;5013942;28;20034;-66
2021/09/07 05:12:05;;;;;;;14.07;10.70;;;13.50;93.10;;;;;;5013718;28;20034;-66
2021/09/07 05:14:31;;;;;;;13.10;9.38;;;13.50;93.10;;;;;;5013271;28;20397;-67
2021/09/07 05:16:57;;;;;;;12.52;8.80;;;13.50;93.10;;;;;;5013160;28;20026;-67
2021/09/07 05:19:22;;;;;;;12.88;8.20;;;13.60;93.20;;;;;;5011644;28;20034;-65
2021/09/07 05:21:48;;;;;;;11.93;8.82;;;13.60;93.10;;;;;;5012752;28;20466;-66
2021/09/07 05:24:13;;;;;;;13.02;9.63;;;13.60;93.10;;;;;;5013554;28;20466;-67
2021/09/07 05:26:39;;;;;;;12.77;8.40;;;13.60;93.20;;;;;;5011213;28;20030;-66
2021/09/07 05:29:04;;;;;;;11.77;9.10;;;13.60;93.30;;;;;;5000570;28;20033;-66
2021/09/07 05:31:32;;;;;;;10.20;7.45;;;13.60;93.20;;;;;;5013074;28;20076;-66
2021/09/07 05:33:57;;;;;;;11.02;8.57;;;13.60;93.20;;;;;;5013666;28;20040;-68
2021/09/07 05:36:23;;;;;;;11.07;8.02;;;13.50;93.10;;;;;;5012215;28;20038;-67
2021/09/07 05:38:48;;;;;;;12.75;8.27;;;13.50;93.10;;;;;;5013040;28;20036;-67
2021/09/07 05:41:14;;;;;;;11.45;8.07;;;13.50;93.10;;;;;;5013028;28;20153;-67
2021/09/07 05:43:40;;;;;;;9.95;8.02;;;13.50;93.10;;;;;;4995653;28;20021;-68
2021/09/07 05:46:05;;;;;;;11.25;8.18;;;13.50;93.10;;;;;;5012499;28;20037;-65
2021/09/07 05:48:31;;;;;;;10.95;8.20;;;13.50;93.10;;;;;;5012672;28;20084;-65
2021/09/07 05:50:56;;;;;;;13.20;8.30;;;13.50;93.10;;;;;;5013018;28;20033;-66
2021/09/07 05:53:22;;;;;;;9.68;7.50;;;13.60;93.10;;;;;;5012827;28;20061;-67
2021/09/07 05:55:47;;;;;;;12.23;7.72;;;13.60;93.10;;;;;;5012361;28;20033;-66
2021/09/07 05:58:13;;;;;;;10.68;8.18;;;13.60;93.10;;;;;;5012723;28;20132;-67
2021/09/07 06:00:38;;;;;;;11.13;8.30;;;13.60;93.20;;;;;;5012481;28;20026;-68
2021/09/07 06:03:08;;;;;;;11.35;8.95;;;13.60;93.20;;;;;;5012197;28;20076;-69
2021/09/07 06:05:35;;;;;;;13.32;9.05;;;13.60;93.20;;;;;;5007832;28;20489;-67
2021/09/07 06:08:01;;;;;;;14.52;8.80;;;13.70;93.20;;;;;;5012458;28;20101;-68
2021/09/07 06:10:26;;;;;;;12.85;9.15;;;13.70;93.20;;;;;;5011146;28;20109;-67
2021/09/07 06:12:52;;;;;;;13.45;9.52;;;13.80;93.30;;;;;;5011353;28;20029;-67
2021/09/07 06:15:17;;;;;;;14.65;9.93;;;13.80;93.30;;;;;;5011637;28;20509;-67
2021/09/07 06:17:43;;;;;;;12.95;8.52;;;13.80;93.30;;;;;;5012825;28;20394;-67
2021/09/07 06:20:09;;;;;;;16.80;10.23;;;13.90;93.40;;;;;;5012455;28;20084;-65
2021/09/07 06:22:35;;;;;;;13.75;9.55;;;13.90;93.20;;;;;;5012727;28;20457;-69
2021/09/07 06:27:30;;;;;;;11.82;8.95;;;14.00;93.20;;;;;;5058014;28;20051;-67
2021/09/07 06:29:55;;;;;;;13.68;8.82;;;14.00;93.20;;;;;;5063778;28;20103;-67
2021/09/07 06:32:21;;;;;;;14.55;9.70;;;14.00;93.20;;;;;;5050601;28;20752;-67
2021/09/07 06:34:47;;;;;;;14.93;10.13;;;14.00;93.20;;;;;;5069175;28;20028;-67
2021/09/07 06:37:12;;;;;;;12.35;8.90;;;14.00;93.30;;;;;;5071019;28;20036;-67
2021/09/07 06:39:38;;;;;;;12.85;9.18;;;14.10;93.30;;;;;;5067645;28;20150;-67
2021/09/07 06:42:05;;;;;;;13.25;9.60;;;14.10;93.20;;;;;;5067635;28;20043;-67
2021/09/07 06:44:31;;;;;;;15.30;10.00;;;14.20;93.20;;;;;;5066074;28;20025;-67
2021/09/07 06:46:57;;;;;;;12.57;9.40;;;14.20;93.20;;;;;;5068755;28;20021;-67
2021/09/07 06:49:22;;;;;;;13.77;10.38;;;14.30;93.30;;;;;;5071427;28;20181;-67
2021/09/07 06:51:48;;;;;;;16.38;12.00;;;14.30;93.20;;;;;;5071659;28;20020;-68
2021/09/07 06:54:14;;;;;;;19.65;12.75;;;14.40;93.20;;;;;;5071078;28;20031;-67
2021/09/07 06:56:39;;;;;;;17.27;12.23;;;14.50;93.30;;;;;;5070255;28;20060;-67
2021/09/07 06:59:05;;;;;;;17.58;12.48;;;14.60;93.30;;;;;;5070909;28;20074;-67
2021/09/07 07:01:30;;;;;;;17.85;12.77;;;14.60;93.30;;;;;;5071001;28;20023;-68
2021/09/07 07:03:56;;;;;;;17.75;11.02;;;14.70;93.40;;;;;;5071389;28;20056;-67
2021/09/07 07:06:21;;;;;;;16.30;11.13;;;14.80;93.20;;;;;;5070383;28;20074;-68
2021/09/07 07:08:47;;;;;;;14.43;11.20;;;14.70;93.10;;;;;;5070859;28;20027;-67
2021/09/07 07:11:13;;;;;;;15.85;10.80;;;14.80;93.10;;;;;;5071097;28;20352;-67
2021/09/07 07:13:38;;;;;;;15.50;10.95;;;14.90;93.10;;;;;;5071133;28;20025;-67
2021/09/07 07:16:04;;;;;;;16.58;10.93;;;14.90;93.00;;;;;;5069254;28;20028;-68
2021/09/07 07:18:30;;;;;;;15.52;11.85;;;15.00;93.10;;;;;;5070646;28;20059;-68
2021/09/07 07:20:55;;;;;;;17.13;11.32;;;15.00;93.00;;;;;;5071239;28;20035;-67
2021/09/07 07:23:21;;;;;;;15.18;11.43;;;15.00;92.90;;;;;;5052961;28;20052;-67
2021/09/07 07:25:46;;;;;;;19.50;12.32;;;15.00;92.80;;;;;;5069536;28;20549;-67
2021/09/07 07:28:12;;;;;;;20.20;12.70;;;15.10;92.80;;;;;;5062386;28;20028;-67
2021/09/07 07:30:37;;;;;;;17.88;11.77;;;15.30;92.60;;;;;;5065647;28;20024;-68
2021/09/07 07:33:03;;;;;;;15.10;10.57;;;15.50;92.40;;;;;;5070911;28;20101;-67
2021/09/07 07:35:29;;;;;;;16.33;10.90;;;15.90;92.00;;;;;;5070154;28;20024;-67
2021/09/07 07:37:54;;;;;;;13.23;9.63;;;16.00;92.00;;;;;;5052787;28;20036;-68
2021/09/07 07:40:20;;;;;;;14.60;10.15;;;16.20;91.80;;;;;;5051594;28;20369;-68
2021/09/07 07:42:46;;;;;;;14.02;10.73;;;16.20;91.80;;;;;;5063703;28;20039;-67
2021/09/07 07:45:12;;;;;;;13.88;9.63;;;16.50;91.60;;;;;;5069414;28;20095;-68
2021/09/07 07:47:37;;;;;;;11.88;9.38;;;16.80;91.10;;;;;;5070758;28;20028;-68
2021/09/07 07:50:03;;;;;;;12.93;9.27;;;16.90;91.00;;;;;;5070858;28;20036;-68
2021/09/07 07:52:29;;;;;;;17.65;9.73;;;16.90;91.10;;;;;;5070628;28;20020;-68
2021/09/07 07:54:55;;;;;;;10.45;7.93;;;17.40;90.70;;;;;;5069254;28;20034;-68
2021/09/07 07:57:20;;;;;;;14.85;8.15;;;18.10;90.10;;;;;;5068124;28;20025;-68
2021/09/07 07:59:46;;;;;;;14.25;8.52;;;18.90;88.90;;;;;;5066103;28;20025;-69
2021/09/07 08:02:12;;;;;;;17.85;8.38;;;19.20;87.60;;;;;;5069186;28;20052;-69
2021/09/07 08:04:39;;;;;;;10.18;6.90;;;19.60;86.60;;;;;;5068669;28;20437;-69
2021/09/07 08:07:05;;;;;;;11.25;7.57;;;19.90;86.50;;;;;;5069799;28;20025;-69
2021/09/07 08:09:31;;;;;;;11.95;9.40;;;20.40;86.00;;;;;;5051017;28;20755;-69
2021/09/07 08:11:58;;;;;;;11.48;7.25;;;20.90;84.40;;;;;;5044466;28;20055;-69
2021/09/07 08:14:24;;;;;;;11.50;7.18;;;21.20;83.30;;;;;;5070024;28;20040;-69
2021/09/07 08:16:50;;;;;;;9.02;6.55;;;21.50;82.50;;;;;;5050714;28;20074;-70
2021/09/07 08:19:15;;;;;;;9.13;6.57;;;21.80;81.90;;;;;;5068632;28;20104;-69
2021/09/07 08:21:41;;;;;;;13.98;6.88;;;22.10;81.80;;;;;;5069682;28;20017;-70
2021/09/07 08:24:07;;;;;;;12.60;7.00;;;22.50;80.50;;;;;;5083144;22;20024;-69
2021/09/07 08:26:32;;;;;;;9.40;6.65;;;22.70;79.60;;;;;;5058223;28;20034;-71
2021/09/07 08:28:58;;;;;;;12.25;7.53;;;22.60;78.50;;;;;;5049651;28;20056;-69
2021/09/07 08:31:23;;;;;;;9.70;6.75;;;22.30;78.60;;;;;;5057862;28;20025;-68
2021/09/07 08:36:20;;;;;;;13.30;10.63;;;21.80;79.20;;;;;;5032828;28;20038;-69
2021/09/07 08:38:45;;;;;;;8.60;6.55;;;21.60;80.20;;;;;;5040451;28;20040;-69
2021/09/07 08:41:16;;;;;;;10.45;6.60;;;21.60;81.50;;;;;;5034960;28;20033;-70
2021/09/07 08:48:38;;;;;;;9.45;6.18;;;21.70;81.90;;;;;;5048192;28;20610;-68
2021/09/07 08:51:03;;;;;;;8.00;6.07;;;21.70;83.10;;;;;;5049172;28;20017;-67
2021/09/07 08:53:29;;;;;;;14.05;5.80;;;21.60;85.10;;;;;;5049770;28;20021;-68
2021/09/07 08:55:55;;;;;;;10.70;6.53;;;21.60;85.60;;;;;;5067522;22;20071;-69
2021/09/07 08:58:20;;;;;;;7.63;5.82;;;21.50;86.90;;;;;;5064035;28;20353;-69
2021/09/07 09:00:48;;;;;;;9.45;6.53;;;21.60;87.10;;;;;;5049710;28;20025;-69
2021/09/07 09:03:14;;;;;;;9.90;6.70;;;21.60;86.80;;;;;;5032882;28;20021;-69
2021/09/07 09:08:12;;;;;;;7.45;6.18;;;21.80;87.00;;;;;;5007449;28;20042;-69
2021/09/07 09:10:39;;;;;;;9.38;6.60;;;22.00;87.20;;;;;;5010056;28;20058;-70
2021/09/07 09:13:11;;;;;;;10.07;6.28;;;22.20;87.70;;;;;;5013035;28;20034;-71
2021/09/07 09:15:37;;;;;;;;;;;22.30;87.30;;;;;;5041117;23;20033;-69
2021/09/07 09:18:07;;;;;;;7.95;5.68;;;22.40;89.50;;;;;;5045665;28;20384;-70
2021/09/07 09:20:33;;;;;;;6.45;5.55;;;22.60;89.30;;;;;;5048758;28;20040;-69
2021/09/07 09:23:00;;;;;;;7.72;6.05;;;22.70;88.60;;;;;;5046256;28;20443;-70
2021/09/07 09:25:26;;;;;;;8.25;5.68;;;22.80;88.20;;;;;;5069839;22;20510;-70
2021/09/07 09:27:54;;;;;;;9.25;6.07;;;22.90;88.20;;;;;;5068101;28;20025;-69
2021/09/07 09:30:24;;;;;;;8.73;6.07;;;23.00;87.90;;;;;;5057930;28;20083;-70
2021/09/07 09:32:51;;;;;;;7.97;6.38;;;23.10;88.10;;;;;;5049916;28;20036;-69
2021/09/07 09:37:57;;;;;;;8.77;5.82;;;23.30;87.80;;;;;;5011078;28;20524;-70
2021/09/07 09:40:23;;;;;;;8.95;6.20;;;23.30;85.60;;;;;;5008741;28;20034;-70
2021/09/07 09:42:49;;;;;;;7.80;5.95;;;23.30;86.90;;;;;;4994901;28;20037;-70
2021/09/07 09:45:16;;;;;;;9.73;5.68;;;23.30;87.40;;;;;;5039680;23;20468;-69
2021/09/07 09:47:52;;;;;;;9.40;6.28;;;23.30;87.10;;;;;;5050950;28;20097;-70
2021/09/07 09:50:18;;;;;;;14.02;6.40;;;23.30;87.10;;;;;;5042396;28;20042;-70
2021/09/07 09:52:46;;;;;;;9.75;6.13;;;23.30;87.30;;;;;;5042708;28;20096;-70
2021/09/07 09:55:13;;;;;;;10.98;6.28;;;23.40;86.70;;;;;;5040609;22;20096;-70
2021/09/07 09:57:40;;;;;;;10.77;6.25;;;23.40;87.20;;;;;;5023799;28;20017;-69
2021/09/07 10:00:08;;;;;;;8.55;5.85;;;23.40;86.40;;;;;;5030751;28;20030;-69
2021/09/07 10:02:34;;;;;;;10.23;5.68;;;23.50;86.40;;;;;;5011713;28;20052;-70
2021/09/07 10:05:00;;;;;;;8.30;5.85;;;23.60;87.40;;;;;;5038986;23;20033;-70
2021/09/07 10:07:27;;;;;;;9.63;5.70;;;23.70;87.30;;;;;;5061292;28;20032;-70
2021/09/07 10:09:54;;;;;;;8.05;5.97;;;23.80;86.30;;;;;;5061009;28;20051;-70
2021/09/07 10:12:28;;;;;;;34.88;25.48;;;24.00;86.70;;;;;;5050481;28;20021;-70
2021/09/07 10:15:09;;;;;;;9.02;6.22;;;24.00;85.80;;;;;;5059068;22;20049;-70
2021/09/07 10:17:46;;;;;;;9.23;6.30;;;24.10;86.40;;;;;;5033806;28;20067;-69
2021/09/07 10:23:05;;;;;;;7.13;5.80;;;24.10;84.10;;;;;;5041865;28;20026;-71
2021/09/07 10:28:08;;;;;;;8.02;5.75;;;24.10;85.30;;;;;;5035815;28;20041;-68
2021/09/07 10:31:05;;;;;;;7.38;5.88;;;24.10;84.10;;;;;;5015871;28;20022;-68
2021/09/07 10:36:23;;;;;;;8.40;5.50;;;24.20;84.50;;;;;;5030154;28;20041;-68
2021/09/07 10:38:52;;;;;;;9.65;5.95;;;24.30;85.90;;;;;;5038499;28;20473;-68
2021/09/07 10:41:33;;;;;;;8.80;5.95;;;24.40;83.40;;;;;;5011423;28;20477;-69
2021/09/07 10:46:58;;;;;;;7.32;5.85;;;24.40;84.10;;;;;;4988756;28;20050;-69
2021/09/07 10:49:33;;;;;;;8.73;5.55;;;24.50;82.20;;;;;;4989517;28;20035;-69
2021/09/07 10:54:39;;;;;;;7.20;5.38;;;24.60;83.60;;;;;;5002349;23;20525;-70
2021/09/07 10:57:05;;;;;;;;;;;24.70;83.40;;;;;;5042664;28;20032;-70
2021/09/07 10:59:50;;;;;;;7.65;5.95;;;24.90;86.20;;;;;;5047070;28;19909;-70
2021/09/07 11:02:35;;;;;;;10.93;5.80;;;25.10;83.80;;;;;;5022267;28;20386;-70
2021/09/07 11:05:05;;;;;;;9.88;5.43;;;25.20;82.10;;;;;;5039458;22;20561;-69
2021/09/07 11:07:43;;;;;;;9.15;5.95;;;25.30;83.80;;;;;;5029228;28;20029;-69
2021/09/07 11:10:18;;;;;;;8.40;5.53;;;25.40;82.30;;;;;;5040825;28;20030;-69
2021/09/07 11:12:54;;;;;;;6.68;5.65;;;25.40;81.10;;;;;;5011315;28;20083;-69
2021/09/07 11:15:23;;;;;;;8.38;6.35;;;25.30;80.30;;;;;;5116255;22;20184;-71
2021/09/07 11:17:51;;;;;;;8.90;5.18;;;25.30;80.70;;;;;;5061003;28;20024;-69
2021/09/07 11:20:18;;;;;;;7.50;5.60;;;25.20;81.30;;;;;;5044085;28;20123;-69
2021/09/07 11:22:44;;;;;;;8.38;6.47;;;25.30;80.50;;;;;;5032590;28;20076;-70
2021/09/07 11:25:12;;;;;;;7.03;5.85;;;25.30;80.30;;;;;;5124398;22;20032;-69
2021/09/07 11:28:00;;;;;;;7.97;6.20;;;25.30;80.90;;;;;;5061423;28;20473;-69
2021/09/07 11:30:33;;;;;;;9.00;5.72;;;25.40;80.50;;;;;;5058613;28;20033;-69
2021/09/07 11:33:00;;;;;;;5.90;5.28;;;25.40;81.40;;;;;;5051119;28;20100;-69
2021/09/07 11:38:14;;;;;;;9.52;5.47;;;25.70;81.30;;;;;;5008337;28;20049;-69
2021/09/07 11:40:50;;;;;;;7.47;4.65;;;25.80;79.90;;;;;;5009413;28;20496;-69
2021/09/07 11:43:28;;;;;;;6.13;5.43;;;25.90;80.10;;;;;;5010469;28;20455;-69
2021/09/07 11:46:12;;;;;;;7.95;5.47;;;25.90;79.70;;;;;;5044668;23;20045;-70
2021/09/07 11:48:39;;;;;;;6.80;5.47;;;25.90;79.00;;;;;;5031318;28;20029;-70
2021/09/07 11:51:06;;;;;;;7.00;5.13;;;26.00;81.00;;;;;;5021565;28;20060;-70
2021/09/07 11:53:32;;;;;;;7.20;5.30;;;26.10;81.60;;;;;;5020165;28;20027;-70
2021/09/07 11:55:58;;;;;;;6.85;5.28;;;26.10;80.60;;;;;;5033079;22;20046;-70
2021/09/07 11:58:28;;;;;;;7.28;5.55;;;26.20;80.40;;;;;;5029332;28;20436;-70
2021/09/07 12:01:00;;;;;;;6.40;5.43;;;26.30;80.10;;;;;;5029813;28;20021;-69
2021/09/07 12:03:42;;;;;;;10.23;5.63;;;26.50;80.20;;;;;;5026658;28;20101;-70
2021/09/07 12:06:11;;;;;;;9.23;5.85;;;26.60;79.60;;;;;;5063167;22;20036;-70
2021/09/07 12:08:37;;;;;;;7.65;5.47;;;26.60;80.80;;;;;;5042614;28;20030;-68
2021/09/07 12:11:04;;;;;;;9.07;5.32;;;26.70;81.40;;;;;;5063211;28;20021;-70
2021/09/07 12:13:29;;;;;;;6.45;5.55;;;26.80;80.70;;;;;;5041141;28;20431;-69
2021/09/07 12:15:55;;;;;;;9.52;5.10;;;26.90;79.20;;;;;;5049004;23;20045;-70
2021/09/07 12:18:39;;;;;;;7.40;5.20;;;27.00;78.10;;;;;;5030527;28;20477;-70
2021/09/07 12:21:20;;;;;;;7.18;5.00;;;27.10;77.80;;;;;;5025748;28;20093;-70
2021/09/07 12:26:42;;;;;;;5.88;5.20;;;27.20;79.00;;;;;;5024912;28;20065;-70
2021/09/07 12:29:18;;;;;;;6.55;4.82;;;27.30;78.40;;;;;;5028572;28;20213;-71
2021/09/07 12:31:45;;;;;;;4.90;4.28;;;27.30;75.70;;;;;;5029579;28;20025;-71
2021/09/07 12:34:18;;;;;;;8.40;4.40;;;27.30;76.70;;;;;;5046229;22;20009;-70
2021/09/07 12:36:47;;;;;;;5.50;4.30;;;27.20;76.50;;;;;;4992513;28;20022;-70
2021/09/07 12:39:13;;;;;;;5.88;4.57;;;27.00;74.80;;;;;;5009884;28;20018;-70
2021/09/07 12:41:40;;;;;;;6.97;4.43;;;26.90;73.40;;;;;;5009965;28;20508;-70
2021/09/07 12:44:05;;;;;;;5.07;4.50;;;26.90;72.90;;;;;;5084988;22;20080;-68
2021/09/07 12:46:31;;;;;;;6.15;4.70;;;26.80;72.70;;;;;;5032019;28;20026;-69
2021/09/07 12:48:57;;;;;;;7.50;4.88;;;26.90;72.40;;;;;;5033324;28;20453;-70
2021/09/07 12:51:23;;;;;;;6.03;4.47;;;26.90;71.60;;;;;;5032039;28;20034;-69
2021/09/07 12:56:22;;;;;;;5.32;4.60;;;26.80;69.00;;;;;;5021306;28;20036;-69
2021/09/07 12:58:53;;;;;;;5.47;4.28;;;26.70;69.50;;;;;;5031792;28;20025;-69
2021/09/07 13:01:21;;;;;;;8.80;4.65;;;26.70;68.30;;;;;;4995824;28;20041;-69
2021/09/07 13:08:40;;;;;;;7.82;5.22;;;26.70;67.90;;;;;;5011924;28;20060;-69
2021/09/07 13:11:05;;;;;;;5.40;4.50;;;26.60;67.20;;;;;;5012458;28;20033;-70
2021/09/07 13:13:31;;;;;;;7.55;4.75;;;26.60;67.40;;;;;;5012675;28;20034;-70
2021/09/07 13:15:58;;;;;;;6.80;4.47;;;26.60;68.20;;;;;;5070333;22;20136;-69
2021/09/07 13:18:30;;;;;;;8.43;5.25;;;26.50;67.20;;;;;;5071473;28;20391;-69
2021/09/07 13:20:57;;;;;;;8.93;5.03;;;26.50;67.40;;;;;;5073020;28;20063;-69